Dothan, AL

12:44 PM CDT on May 05, 2015 (GMT -0500)
South Dothan | | Change Station
CLOSE
Current Station
Personal Weather Station
Location: Dothan, AL
Elevation: 305 ft
Nearby Weather Stations

Elev 305 ft 31.18 °N, 85.37 °W | Updated 8 minutes ago

Clear
Clear
80.2 °F
Feels Like 81 °F
N
6.8
Wind Variable Wind from ENE

Today
High -- | Low -- °F
--% Chance of Precip.
Yesterday
High -- | Low -- °F
Precip. -- in
5:53 AM 7:23 PM
Full, 97% visible
Pressure 30.26 in
Visibility 10.0 miles
Clouds Clear
Heat Index 81 °F
Dew Point 60 °F
Humidity 50%
Rainfall 0.00 in
Snow Depth Not available.
UV 13 out of 12
Pollen 7.80 out of 12
Air Quality Not available.
Flu Activity Sporadic
METAR KDHN 051653Z 06009G18KT 10SM CLR 26/13 A3028 RMK AO2 SLP247 T02610133 $

More Conditions Fewer Conditions

Pressure 30.26 in
Visibility 10.0 miles
Clouds Clear
Heat Index 81 °F
Dew Point 60 °F
Humidity 50%
Rainfall 0.00 in
Snow Depth Not available.
UV 13 out of 12
Pollen 7.80 out of 12
Air Quality Not available.
Flu Activity Sporadic
METAR KDHN 051653Z 06009G18KT 10SM CLR 26/13 A3028 RMK AO2 SLP247 T02610133 $

More Conditions Fewer Conditions

10-Day Weather Forecast

Almanac

Astronomy

May. 05, 2015 Rise Set
Actual Time
Civil Twilight
Nautical Twilight
Astronomical Twilight
Moon
Length of Visible Light
Length of Day
Tomorrow will be .
, % of the Moon is Illuminated

Today's Extremes

State Highs State Lows

Community

WunderPhotos

Upload Photos

1,818,950 photos uploaded!

WunderBlogs® & News

Nearby

Air Quality

  Air Quality AQ Index Pollutant
Not available.

Snow Depth

Station Depth Elevation

Earthquake Activity

City Distance Mag. Time & Date
Minimum magnitude displayed is 2.5.

Coastal Water Temperatures

Place Temperature

Stations

Nearby Weather Stations

Station Location Temp. Windchill Dew Point Humidity Wind Precip. Elev Updated Type